Time;durP1;ratioP1;P1;durP2;ratioP2;P2;SDS_P1;SDS_P2;PMS_P1;PMS_P2;Temp;Humidity;BMP_temperature;BMP_pressure;BME280_temperature;BME280_humidity;BME280_pressure;Samples;Min_cycle;Max_cycle;Signal;HPM_P1;HPM_P2
2022/12/25 00:00:16;;;;;;;;;;;;;;;;;;5051624;28;20624;-83
2022/12/25 00:02:43;;;;;;;;;;;;;;;;;;5047555;28;19920;-84
2022/12/25 00:05:16;;;;;;;;;;;;;;;;;;5050991;28;20282;-83
2022/12/25 00:07:43;;;;;;;;;;;;;;;;;;5070866;28;19920;-84
2022/12/25 00:10:16;;;;;;;;;;;;;;;;;;5045582;28;19977;-83
2022/12/25 00:12:48;;;;;;;;;;;;;;;;;;5060733;28;20377;-84
2022/12/25 00:15:21;;;;;;;;;;;;;;;;;;5047652;28;19925;-83
2022/12/25 00:17:53;;;;;;;;;;;;;;;;;;5052750;28;19936;-83
2022/12/25 00:20:26;;;;;;;;;;;;;;;;;;5040586;28;19932;-83
2022/12/25 00:22:58;;;;;;;;;;;;;;;;;;5072136;28;19921;-83
2022/12/25 00:25:26;;;;;;;;;;;;;;;;;;5042139;28;20140;-84
2022/12/25 00:27:53;;;;;;;;;;;;;;;;;;5058536;28;20304;-84
2022/12/25 00:30:21;;;;;;;;;;;;;;;;;;5050612;28;19929;-85
2022/12/25 00:32:48;;;;;;;;;;;;;;;;;;5047711;28;19920;-84
2022/12/25 00:35:16;;;;;;;;;;;;;;;;;;5067375;28;19928;-84
2022/12/25 00:37:43;;;;;;;;;;;;;;;;;;5051397;28;19921;-84
2022/12/25 00:40:16;;;;;;;;;;;;;;;;;;5047474;28;19928;-83
2022/12/25 00:42:48;;;;;;;;;;;;;;;;;;5043451;28;19921;-83
2022/12/25 00:45:15;;;;;;;;;;;;;;;;;;5034066;28;20306;-84
2022/12/25 00:47:48;;;;;;;;;;;;;;;;;;5074415;28;19921;-84
2022/12/25 00:50:16;;;;;;;;;;;;;;;;;;5052527;28;19921;-84
2022/12/25 00:52:44;;;;;;;;;;;;;;;;;;5050978;28;19920;-84
2022/12/25 00:55:12;;;;;;;;;;;;;;;;;;5078840;28;19924;-84
2022/12/25 00:57:39;;;;;;;;;;;;;;;;;;5045591;28;19921;-83
2022/12/25 01:00:07;;;;;;;;;;;;;;;;;;5037696;28;19925;-85
2022/12/25 01:02:39;;;;;;;;;;;;;;;;;;5041493;28;19928;-83
2022/12/25 01:05:07;;;;;;;;;;;;;;;;;;5046330;28;19924;-84
2022/12/25 01:07:39;;;;;;;;;;;;;;;;;;5061337;28;19921;-84
2022/12/25 01:10:21;;;;;;;;;;;;;;;;;;5073233;28;20305;-86
2022/12/25 01:12:49;;;;;;;;;;;;;;;;;;5049876;28;19929;-83
2022/12/25 01:15:21;;;;;;;;;;;;;;;;;;5048362;28;19928;-84
2022/12/25 01:17:53;;;;;;;;;;;;;;;;;;5065866;28;19921;-83
2022/12/25 01:20:26;;;;;;;;;;;;;;;;;;5045633;28;19921;-84
2022/12/25 01:22:53;;;;;;;;;;;;;;;;;;5074752;28;19928;-83
2022/12/25 01:25:26;;;;;;;;;;;;;;;;;;5041206;28;19921;-83
2022/12/25 01:27:53;;;;;;;;;;;;;;;;;;5049062;28;19921;-85
2022/12/25 01:30:26;;;;;;;;;;;;;;;;;;5052007;28;19921;-84
2022/12/25 01:32:53;;;;;;;;;;;;;;;;;;5047804;28;19921;-84
2022/12/25 01:35:21;;;;;;;;;;;;;;;;;;5040957;28;19921;-84
2022/12/25 01:37:48;;;;;;;;;;;;;;;;;;5049913;28;19921;-85
2022/12/25 01:40:16;;;;;;;;;;;;;;;;;;5047852;28;19921;-83
2022/12/25 01:42:43;;;;;;;;;;;;;;;;;;5042011;28;19929;-83
2022/12/25 01:45:16;;;;;;;;;;;;;;;;;;5036517;28;19928;-84
2022/12/25 01:47:48;;;;;;;;;;;;;;;;;;5057450;28;19928;-83
2022/12/25 01:50:21;;;;;;;;;;;;;;;;;;5065925;28;19928;-84
2022/12/25 01:52:48;;;;;;;;;;;;;;;;;;5049535;28;19920;-83
2022/12/25 01:55:21;;;;;;;;;;;;;;;;;;5050239;28;20358;-83
2022/12/25 01:57:53;;;;;;;;;;;;;;;;;;5033429;28;20290;-84
2022/12/25 02:00:21;;;;;;;;;;;;;;;;;;5065223;28;19928;-84
2022/12/25 02:02:48;;;;;;;;;;;;;;;;;;5042626;28;19921;-83
2022/12/25 02:05:16;;;;;;;;;;;;;;;;;;5065015;28;19928;-83
2022/12/25 02:07:49;;;;;;;;;;;;;;;;;;5033797;28;19921;-84
2022/12/25 02:10:22;;;;;;;;;;;;;;;;;;5063507;28;19928;-84
2022/12/25 02:12:49;;;;;;;;;;;;;;;;;;5046930;28;19921;-83
2022/12/25 02:15:17;;;;;;;;;;;;;;;;;;5052138;28;19921;-83
2022/12/25 02:17:44;;;;;;;;;;;;;;;;;;5033296;28;19928;-84
2022/12/25 02:20:11;;;;;;;;;;;;;;;;;;5050908;28;19921;-84
2022/12/25 02:22:39;;;;;;;;;;;;;;;;;;5069107;28;20247;-83
2022/12/25 02:25:07;;;;;;;;;;;;;;;;;;5042454;28;19921;-84
2022/12/25 02:27:35;;;;;;;;;;;;;;;;;;5039460;28;19987;-83
2022/12/25 02:30:02;;;;;;;;;;;;;;;;;;5047706;28;19921;-83
2022/12/25 02:32:35;;;;;;;;;;;;;;;;;;5042885;28;19921;-85
2022/12/25 02:35:06;;;;;;;;;;;;;;;;;;5040385;28;19920;-83
2022/12/25 02:37:34;;;;;;;;;;;;;;;;;;5043202;28;19921;-84
2022/12/25 02:40:00;;;;;;;;;;;;;;;;;;5043911;28;19920;-83
2022/12/25 03:06:41;;;;;;;;;;;;;;;;;;5056988;28;20301;-83
2022/12/25 03:07:46;;;;;;;;;;;;;;;;;;5041252;28;20294;-83
2022/12/25 03:13:03;;;;;;;;;;;;;;;;;;5058071;28;19928;-84
2022/12/25 03:18:23;;;;;;;;;;;;;;;;;;5042799;28;19921;-83
2022/12/25 03:29:06;;;;;;;;;;;;;;;;;;5038385;28;19925;-84
2022/12/25 03:31:37;;;;;;;;;;;;;;;;;;5042459;28;19924;-83
2022/12/25 03:37:00;;;;;;;;;;;;;;;;;;5032510;28;19929;-83
2022/12/25 04:38:21;;;;;;;;;;;;;;;;;;5038168;28;19925;-83
2022/12/25 04:40:48;;;;;;;;;;;;;;;;;;5065130;28;19975;-83
2022/12/25 04:43:23;;;;;;;;;;;;;;;;;;5050441;28;20405;-83
2022/12/25 04:45:51;;;;;;;;;;;;;;;;;;5035609;28;19921;-83
2022/12/25 04:48:19;;;;;;;;;;;;;;;;;;5078527;28;19928;-83
2022/12/25 04:50:46;;;;;;;;;;;;;;;;;;5064400;28;19921;-85
2022/12/25 04:53:14;;;;;;;;;;;;;;;;;;5045163;28;19921;-84
2022/12/25 04:55:41;;;;;;;;;;;;;;;;;;5053408;28;19920;-83
2022/12/25 04:58:09;;;;;;;;;;;;;;;;;;5051213;28;19995;-84
2022/12/25 05:00:41;;;;;;;;;;;;;;;;;;5068891;28;19928;-83
2022/12/25 05:03:09;;;;;;;;;;;;;;;;;;5041065;28;19920;-84
2022/12/25 05:05:36;;;;;;;;;;;;;;;;;;5078725;28;20584;-82
2022/12/25 05:08:10;;;;;;;;;;;;;;;;;;5049495;28;19921;-84
2022/12/25 05:10:42;;;;;;;;;;;;;;;;;;5035119;28;19921;-83
2022/12/25 05:13:10;;;;;;;;;;;;;;;;;;5034174;28;19932;-84
2022/12/25 05:15:37;;;;;;;;;;;;;;;;;;5066097;28;19921;-83
2022/12/25 05:18:10;;;;;;;;;;;;;;;;;;5034491;28;19932;-83
2022/12/25 05:20:37;;;;;;;;;;;;;;;;;;5052420;28;19920;-83
2022/12/25 05:23:10;;;;;;;;;;;;;;;;;;5044767;28;19932;-84
2022/12/25 05:25:37;;;;;;;;;;;;;;;;;;5082625;28;20385;-83
2022/12/25 05:28:05;;;;;;;;;;;;;;;;;;5041989;28;20284;-83
2022/12/25 05:30:32;;;;;;;;;;;;;;;;;;5040776;28;19928;-83
2022/12/25 05:33:05;;;;;;;;;;;;;;;;;;5049214;28;19928;-82
2022/12/25 05:35:32;;;;;;;;;;;;;;;;;;5032774;28;19921;-84
2022/12/25 05:38:05;;;;;;;;;;;;;;;;;;5034500;28;19921;-85
2022/12/25 05:40:37;;;;;;;;;;;;;;;;;;5052816;28;19921;-83
2022/12/25 05:43:05;;;;;;;;;;;;;;;;;;5047847;28;19921;-83
2022/12/25 05:45:32;;;;;;;;;;;;;;;;;;5035348;28;19928;-83
2022/12/25 05:48:00;;;;;;;;;;;;;;;;;;5034105;28;19921;-83
2022/12/25 05:50:32;;;;;;;;;;;;;;;;;;5067766;28;19927;-83
2022/12/25 05:53:05;;;;;;;;;;;;;;;;;;5047941;28;19921;-84
2022/12/25 05:55:32;;;;;;;;;;;;;;;;;;5042593;28;19984;-83
2022/12/25 05:58:00;;;;;;;;;;;;;;;;;;5034001;28;19925;-83
2022/12/25 06:00:28;;;;;;;;;;;;;;;;;;5033114;28;20283;-83
2022/12/25 06:02:55;;;;;;;;;;;;;;;;;;5038425;28;20277;-83
2022/12/25 06:05:28;;;;;;;;;;;;;;;;;;5072701;28;19921;-84
2022/12/25 06:08:00;;;;;;;;;;;;;;;;;;5049554;28;20286;-84
2022/12/25 06:10:33;;;;;;;;;;;;;;;;;;5059540;28;19928;-83
2022/12/25 06:13:00;;;;;;;;;;;;;;;;;;5080561;28;19925;-83
2022/12/25 06:15:33;;;;;;;;;;;;;;;;;;5079635;28;19927;-84
2022/12/25 06:18:00;;;;;;;;;;;;;;;;;;5082311;28;19935;-83
2022/12/25 06:20:33;;;;;;;;;;;;;;;;;;5061069;28;19925;-83
2022/12/25 06:23:05;;;;;;;;;;;;;;;;;;5042128;28;20293;-83
2022/12/25 06:25:33;;;;;;;;;;;;;;;;;;5046959;28;19927;-82
2022/12/25 06:28:00;;;;;;;;;;;;;;;;;;5075411;28;19948;-83
2022/12/25 06:30:28;;;;;;;;;;;;;;;;;;5046250;28;19928;-84
2022/12/25 06:32:55;;;;;;;;;;;;;;;;;;5047269;28;19921;-83
2022/12/25 06:35:23;;;;;;;;;;;;;;;;;;5042907;28;19927;-83
2022/12/25 06:37:55;;;;;;;;;;;;;;;;;;5050605;28;19928;-84
2022/12/25 06:40:23;;;;;;;;;;;;;;;;;;5050067;28;20297;-83
2022/12/25 06:42:50;;;;;;;;;;;;;;;;;;5043954;28;19936;-83
2022/12/25 06:45:23;;;;;;;;;;;;;;;;;;5057367;28;19931;-83
2022/12/25 06:47:50;;;;;;;;;;;;;;;;;;5078447;28;19936;-83
2022/12/25 06:50:18;;;;;;;;;;;;;;;;;;5083443;28;19928;-83
2022/12/25 06:52:45;;;;;;;;;;;;;;;;;;5048997;28;19925;-84
2022/12/25 06:55:13;;;;;;;;;;;;;;;;;;5045252;28;20752;-83
2022/12/25 06:57:40;;;;;;;;;;;;;;;;;;5043709;28;19947;-86
2022/12/25 07:00:08;;;;;;;;;;;;;;;;;;5042012;28;20107;-84
2022/12/25 07:02:37;;;;;;;;;;;;;;;;;;5042390;28;19932;-83
2022/12/25 07:05:04;;;;;;;;;;;;;;;;;;5040976;28;20381;-83
2022/12/25 07:07:32;;;;;;;;;;;;;;;;;;5045172;28;19931;-83
2022/12/25 07:09:59;;;;;;;;;;;;;;;;;;5042810;28;19921;-83
2022/12/25 07:12:32;;;;;;;;;;;;;;;;;;5047530;28;19921;-83
2022/12/25 07:14:59;;;;;;;;;;;;;;;;;;5075869;28;19920;-84
2022/12/25 07:17:32;;;;;;;;;;;;;;;;;;5045736;28;19928;-82
2022/12/25 07:19:59;;;;;;;;;;;;;;;;;;5051871;28;19921;-83
2022/12/25 07:22:32;;;;;;;;;;;;;;;;;;5038429;28;19925;-83
2022/12/25 07:25:04;;;;;;;;;;;;;;;;;;5046739;28;19920;-83
2022/12/25 07:27:37;;;;;;;;;;;;;;;;;;5060903;28;19922;-82
2022/12/25 07:30:04;;;;;;;;;;;;;;;;;;5045080;28;19925;-82
2022/12/25 07:32:40;;;;;;;;;;;;;;;;;;5052457;28;19948;-83
2022/12/25 07:35:12;;;;;;;;;;;;;;;;;;5048369;28;19928;-85
2022/12/25 07:37:40;;;;;;;;;;;;;;;;;;5045361;28;19921;-83
2022/12/25 07:40:07;;;;;;;;;;;;;;;;;;5045673;28;19928;-83
2022/12/25 07:42:35;;;;;;;;;;;;;;;;;;5046233;28;20309;-84
2022/12/25 07:45:07;;;;;;;;;;;;;;;;;;5042953;28;19921;-82
2022/12/25 07:47:40;;;;;;;;;;;;;;;;;;5051618;28;20034;-81
2022/12/25 07:50:07;;;;;;;;;;;;;;;;;;5043598;28;19921;-83
2022/12/25 07:52:35;;;;;;;;;;;;;;;;;;5082745;28;19928;-84
2022/12/25 07:55:02;;;;;;;;;;;;;;;;;;5052772;28;20293;-83
2022/12/25 07:57:30;;;;;;;;;;;;;;;;;;5067377;28;20621;-92
2022/12/25 07:59:57;;;;;;;;;;;;;;;;;;5079198;28;20250;-89
2022/12/25 08:02:27;;;;;;;;;;;;;;;;;;5040137;28;19921;-88
2022/12/25 08:04:59;;;;;;;;;;;;;;;;;;5048521;28;19928;-89
2022/12/25 08:07:32;;;;;;;;;;;;;;;;;;5065859;28;19920;-93
2022/12/25 08:09:59;;;;;;;;;;;;;;;;;;5045750;28;19928;-92
2022/12/25 08:12:27;;;;;;;;;;;;;;;;;;5047419;28;19921;-91
2022/12/25 08:14:54;;;;;;;;;;;;;;;;;;5078861;28;20281;-91
2022/12/25 08:17:22;;;;;;;;;;;;;;;;;;5083300;28;19931;-87
2022/12/25 08:19:50;;;;;;;;;;;;;;;;;;5048542;28;19921;-92
2022/12/25 08:22:17;;;;;;;;;;;;;;;;;;5044253;28;20266;-90
2022/12/25 08:24:45;;;;;;;;;;;;;;;;;;5046298;28;20270;-88
2022/12/25 08:27:12;;;;;;;;;;;;;;;;;;5041808;28;19925;-91
2022/12/25 08:29:40;;;;;;;;;;;;;;;;;;5049447;28;19928;-91
2022/12/25 08:32:07;;;;;;;;;;;;;;;;;;5075828;28;19928;-90
2022/12/25 08:34:35;;;;;;;;;;;;;;;;;;5050798;28;20313;-91
2022/12/25 08:37:03;;;;;;;;;;;;;;;;;;5053677;28;20300;-89
2022/12/25 08:39:30;;;;;;;;;;;;;;;;;;5049654;28;19920;-91
2022/12/25 08:41:58;;;;;;;;;;;;;;;;;;5048562;28;19927;-85
2022/12/25 08:44:25;;;;;;;;;;;;;;;;;;5051794;28;19924;-87
2022/12/25 08:46:53;;;;;;;;;;;;;;;;;;5081857;28;19936;-88
2022/12/25 08:49:27;;;;;;;;;;;;;;;;;;5046284;28;20502;-87
2022/12/25 08:51:55;;;;;;;;;;;;;;;;;;5075481;28;19920;-85
2022/12/25 08:54:29;;;;;;;;;;;;;;;;;;5051567;28;20585;-86
2022/12/25 08:57:02;;;;;;;;;;;;;;;;;;5073084;28;19943;-86
2022/12/25 08:59:29;;;;;;;;;;;;;;;;;;5045506;28;19921;-88
2022/12/25 09:01:57;;;;;;;;;;;;;;;;;;5049876;28;19928;-86
2022/12/25 09:04:25;;;;;;;;;;;;;;;;;;5052322;28;19928;-86
2022/12/25 09:06:52;;;;;;;;;;;;;;;;;;5049256;28;19947;-87
2022/12/25 09:09:20;;;;;;;;;;;;;;;;;;5053517;28;19927;-85
2022/12/25 09:11:47;;;;;;;;;;;;;;;;;;5075192;28;19921;-86
2022/12/25 09:14:15;;;;;;;;;;;;;;;;;;5065242;28;19929;-85
2022/12/25 09:16:42;;;;;;;;;;;;;;;;;;5043015;28;20328;-84
2022/12/25 09:19:15;;;;;;;;;;;;;;;;;;5039616;28;19921;-84
2022/12/25 09:21:42;;;;;;;;;;;;;;;;;;5074243;28;19929;-84
2022/12/25 09:24:10;;;;;;;;;;;;;;;;;;5049133;28;19921;-85
2022/12/25 09:26:37;;;;;;;;;;;;;;;;;;5040613;28;19932;-86
2022/12/25 09:29:10;;;;;;;;;;;;;;;;;;5039927;28;19928;-86
2022/12/25 09:31:37;;;;;;;;;;;;;;;;;;5048277;28;19928;-84
2022/12/25 09:34:05;;;;;;;;;;;;;;;;;;5047791;28;20634;-83
2022/12/25 09:36:32;;;;;;;;;;;;;;;;;;5053132;28;20463;-83
2022/12/25 09:39:00;;;;;;;;;;;;;;;;;;5045424;28;20313;-83
2022/12/25 09:41:28;;;;;;;;;;;;;;;;;;5064336;28;19921;-83
2022/12/25 09:43:55;;;;;;;;;;;;;;;;;;5053833;28;19921;-84
2022/12/25 09:46:28;;;;;;;;;;;;;;;;;;5042605;28;20388;-83
2022/12/25 09:49:00;;;;;;;;;;;;;;;;;;5057249;28;19921;-84
2022/12/25 09:51:33;;;;;;;;;;;;;;;;;;5074963;28;19935;-83
2022/12/25 09:54:00;;;;;;;;;;;;;;;;;;5043392;28;19922;-84
2022/12/25 09:56:28;;;;;;;;;;;;;;;;;;5046016;28;20533;-84
2022/12/25 09:59:00;;;;;;;;;;;;;;;;;;5042089;28;19932;-87
2022/12/25 10:01:28;;;;;;;;;;;;;;;;;;5074665;28;19984;-85
2022/12/25 10:03:55;;;;;;;;;;;;;;;;;;5044780;28;19928;-84
2022/12/25 10:06:23;;;;;;;;;;;;;;;;;;5075360;28;19929;-84
2022/12/25 10:08:50;;;;;;;;;;;;;;;;;;5070029;28;19935;-82
2022/12/25 10:11:23;;;;;;;;;;;;;;;;;;5049997;28;20394;-82
2022/12/25 10:13:55;;;;;;;;;;;;;;;;;;5046882;28;19928;-82
2022/12/25 10:16:23;;;;;;;;;;;;;;;;;;5073783;28;19925;-85
2022/12/25 10:18:50;;;;;;;;;;;;;;;;;;5041457;28;20392;-83
2022/12/25 10:21:18;;;;;;;;;;;;;;;;;;5048448;28;19927;-82
2022/12/25 10:23:51;;;;;;;;;;;;;;;;;;5041188;28;19920;-85
2022/12/25 10:26:24;;;;;;;;;;;;;;;;;;5038364;28;19925;-83
2022/12/25 10:28:52;;;;;;;;;;;;;;;;;;5043982;28;19920;-84
2022/12/25 10:31:19;;;;;;;;;;;;;;;;;;5076170;28;19920;-85
2022/12/25 10:33:52;;;;;;;;;;;;;;;;;;5040339;28;20285;-81
2022/12/25 10:36:27;;;;;;;;;;;;;;;;;;5035368;28;20278;-84
2022/12/25 10:38:55;;;;;;;;;;;;;;;;;;5041291;28;19923;-85
2022/12/25 10:41:27;;;;;;;;;;;;;;;;;;5035146;28;19936;-84
2022/12/25 10:44:00;;;;;;;;;;;;;;;;;;5030413;28;20312;-86
2022/12/25 10:46:27;;;;;;;;;;;;;;;;;;5030014;28;19928;-85
2022/12/25 10:49:00;;;;;;;;;;;;;;;;;;5063200;28;19929;-85
2022/12/25 10:51:32;;;;;;;;;;;;;;;;;;5028900;28;19940;-83
2022/12/25 10:54:00;;;;;;;;;;;;;;;;;;5027590;28;19928;-82
2022/12/25 10:56:27;;;;;;;;;;;;;;;;;;5027049;28;19929;-83
2022/12/25 10:58:55;;;;;;;;;;;;;;;;;;5029143;28;19936;-85
2022/12/25 11:01:27;;;;;;;;;;;;;;;;;;5065928;28;20304;-85
2022/12/25 11:03:55;;;;;;;;;;;;;;;;;;5031717;28;20661;-83
2022/12/25 11:06:23;;;;;;;;;;;;;;;;;;5034136;28;19929;-87
2022/12/25 11:08:55;;;;;;;;;;;;;;;;;;5063314;28;19925;-87
2022/12/25 11:11:28;;;;;;;;;;;;;;;;;;5067776;28;21034;-88
2022/12/25 11:13:55;;;;;;;;;;;;;;;;;;5032025;28;19928;-88
2022/12/25 11:16:23;;;;;;;;;;;;;;;;;;5034734;28;19936;-86
2022/12/25 11:18:50;;;;;;;;;;;;;;;;;;5032128;28;20397;-86
2022/12/25 11:21:18;;;;;;;;;;;;;;;;;;5035206;28;19929;-86
2022/12/25 11:23:50;;;;;;;;;;;;;;;;;;5039980;28;19928;-84
2022/12/25 11:26:23;;;;;;;;;;;;;;;;;;5035261;28;19921;-86
2022/12/25 11:28:51;;;;;;;;;;;;;;;;;;5036288;28;20841;-87
2022/12/25 11:31:18;;;;;;;;;;;;;;;;;;5036232;28;19928;-86
2022/12/25 11:33:46;;;;;;;;;;;;;;;;;;5044559;28;19929;-86
2022/12/25 11:36:14;;;;;;;;;;;;;;;;;;5033513;28;20019;-87
2022/12/25 11:38:41;;;;;;;;;;;;;;;;;;5033737;28;19951;-85
2022/12/25 11:41:09;;;;;;;;;;;;;;;;;;5032855;28;19940;-86
2022/12/25 11:43:36;;;;;;;;;;;;;;;;;;5063827;28;20594;-85
2022/12/25 11:46:09;;;;;;;;;;;;;;;;;;5036851;28;19929;-86
2022/12/25 11:48:36;;;;;;;;;;;;;;;;;;5034751;28;19935;-86
2022/12/25 11:51:04;;;;;;;;;;;;;;;;;;5032500;28;20518;-86
2022/12/25 11:53:37;;;;;;;;;;;;;;;;;;5029436;28;20821;-86
2022/12/25 11:56:04;;;;;;;;;;;;;;;;;;5036568;28;20629;-84
2022/12/25 11:58:32;;;;;;;;;;;;;;;;;;5047102;28;20320;-86
2022/12/25 12:00:59;;;;;;;;;;;;;;;;;;5046653;28;20282;-85
2022/12/25 12:03:27;;;;;;;;;;;;;;;;;;5075543;28;19924;-85
2022/12/25 12:05:54;;;;;;;;;;;;;;;;;;5046401;28;19932;-86
2022/12/25 12:08:22;;;;;;;;;;;;;;;;;;5075353;28;19944;-84
2022/12/25 12:10:54;;;;;;;;;;;;;;;;;;5045294;28;19925;-85
2022/12/25 12:13:22;;;;;;;;;;;;;;;;;;5072245;28;19925;-85
2022/12/25 12:15:49;;;;;;;;;;;;;;;;;;5050443;28;19920;-85
2022/12/25 12:18:17;;;;;;;;;;;;;;;;;;5043550;28;20324;-85
2022/12/25 12:20:44;;;;;;;;;;;;;;;;;;5066414;28;19929;-85
2022/12/25 12:23:12;;;;;;;;;;;;;;;;;;5049540;28;20400;-85
2022/12/25 12:25:40;;;;;;;;;;;;;;;;;;5053647;28;19925;-85
2022/12/25 12:28:07;;;;;;;;;;;;;;;;;;5042125;28;19921;-84
2022/12/25 12:30:40;;;;;;;;;;;;;;;;;;5053267;28;19925;-85
2022/12/25 12:33:12;;;;;;;;;;;;;;;;;;5046307;28;19921;-86
2022/12/25 12:35:40;;;;;;;;;;;;;;;;;;5044293;28;20226;-85
2022/12/25 12:38:07;;;;;;;;;;;;;;;;;;5043899;28;19921;-82
2022/12/25 12:40:35;;;;;;;;;;;;;;;;;;5044673;28;19925;-84
2022/12/25 12:43:02;;;;;;;;;;;;;;;;;;5040831;28;19921;-85
2022/12/25 12:45:30;;;;;;;;;;;;;;;;;;5048187;28;19921;-84
2022/12/25 12:47:57;;;;;;;;;;;;;;;;;;5045312;28;19921;-85
2022/12/25 12:50:25;;;;;;;;;;;;;;;;;;5073353;28;19925;-86
2022/12/25 12:52:52;;;;;;;;;;;;;;;;;;5066126;28;20388;-86
2022/12/25 12:55:20;;;;;;;;;;;;;;;;;;5042050;28;19920;-93
2022/12/25 12:57:47;;;;;;;;;;;;;;;;;;5048604;28;19921;-86
2022/12/25 13:00:15;;;;;;;;;;;;;;;;;;5045675;28;19924;-87
2022/12/25 13:02:43;;;;;;;;;;;;;;;;;;5072313;28;19928;-87
2022/12/25 13:05:10;;;;;;;;;;;;;;;;;;5080345;28;19932;-84
2022/12/25 13:07:43;;;;;;;;;;;;;;;;;;5077135;28;19924;-84
2022/12/25 13:10:16;;;;;;;;;;;;;;;;;;5073971;28;19925;-87
2022/12/25 13:12:44;;;;;;;;;;;;;;;;;;5070532;28;19929;-85
2022/12/25 13:15:16;;;;;;;;;;;;;;;;;;5072886;28;19944;-86
2022/12/25 13:17:44;;;;;;;;;;;;;;;;;;5042308;28;19921;-87
2022/12/25 13:20:11;;;;;;;;;;;;;;;;;;5076876;28;19921;-86
2022/12/25 13:22:39;;;;;;;;;;;;;;;;;;5046240;28;19921;-92
2022/12/25 13:25:08;;;;;;;;;;;;;;;;;;5070747;28;19928;-85
2022/12/25 13:27:35;;;;;;;;;;;;;;;;;;5043834;28;20381;-86
2022/12/25 13:30:03;;;;;;;;;;;;;;;;;;5073921;28;20301;-85
2022/12/25 13:32:30;;;;;;;;;;;;;;;;;;5071254;28;19928;-83
2022/12/25 13:34:58;;;;;;;;;;;;;;;;;;5050299;28;19930;-87
2022/12/25 13:37:26;;;;;;;;;;;;;;;;;;5044209;28;20274;-87
2022/12/25 13:39:53;;;;;;;;;;;;;;;;;;5055180;28;19928;-88
2022/12/25 13:42:21;;;;;;;;;;;;;;;;;;5036233;28;20606;-87
2022/12/25 13:44:48;;;;;;;;;;;;;;;;;;5062340;28;20523;-87
2022/12/25 13:47:16;;;;;;;;;;;;;;;;;;5031286;28;19929;-87
2022/12/25 13:49:44;;;;;;;;;;;;;;;;;;5030503;28;19928;-85
2022/12/25 13:52:11;;;;;;;;;;;;;;;;;;5034592;28;19928;-86
2022/12/25 13:54:39;;;;;;;;;;;;;;;;;;5046346;28;19965;-85
2022/12/25 13:57:06;;;;;;;;;;;;;;;;;;5027568;28;19928;-87
2022/12/25 13:59:34;;;;;;;;;;;;;;;;;;5059381;28;19928;-86
2022/12/25 14:02:01;;;;;;;;;;;;;;;;;;5060000;28;19928;-87
2022/12/25 14:04:29;;;;;;;;;;;;;;;;;;5062393;28;19929;-87
2022/12/25 14:07:01;;;;;;;;;;;;;;;;;;5057200;28;19928;-87
2022/12/25 14:09:29;;;;;;;;;;;;;;;;;;5035279;28;19921;-87
2022/12/25 14:11:56;;;;;;;;;;;;;;;;;;5035029;28;20517;-85
2022/12/25 14:14:29;;;;;;;;;;;;;;;;;;5029792;28;19936;-86
2022/12/25 14:16:57;;;;;;;;;;;;;;;;;;5033486;28;19928;-86
2022/12/25 14:19:25;;;;;;;;;;;;;;;;;;5030827;28;19929;-88
2022/12/25 14:21:52;;;;;;;;;;;;;;;;;;5032509;28;19928;-86
2022/12/25 14:24:20;;;;;;;;;;;;;;;;;;5031120;28;20402;-85
2022/12/25 14:26:47;;;;;;;;;;;;;;;;;;5029694;28;20685;-87
2022/12/25 14:29:15;;;;;;;;;;;;;;;;;;5031441;28;19936;-87
2022/12/25 14:31:42;;;;;;;;;;;;;;;;;;5063461;28;20408;-88
2022/12/25 14:34:10;;;;;;;;;;;;;;;;;;5029655;28;20719;-89
2022/12/25 14:36:37;;;;;;;;;;;;;;;;;;5027492;28;20724;-86
2022/12/25 14:39:05;;;;;;;;;;;;;;;;;;5035315;28;20004;-87
2022/12/25 14:41:37;;;;;;;;;;;;;;;;;;5062252;28;20771;-86
2022/12/25 14:44:05;;;;;;;;;;;;;;;;;;5029170;28;19935;-86
2022/12/25 14:46:33;;;;;;;;;;;;;;;;;;5032348;28;19928;-86
2022/12/25 14:49:00;;;;;;;;;;;;;;;;;;5059547;28;19929;-86
2022/12/25 14:51:28;;;;;;;;;;;;;;;;;;5028787;28;19929;-86
2022/12/25 14:53:55;;;;;;;;;;;;;;;;;;5067924;28;21273;-87
2022/12/25 14:56:23;;;;;;;;;;;;;;;;;;5029473;28;19929;-87
2022/12/25 14:58:50;;;;;;;;;;;;;;;;;;5035365;28;20288;-86
2022/12/25 15:01:18;;;;;;;;;;;;;;;;;;5029518;28;19935;-86
2022/12/25 15:03:47;;;;;;;;;;;;;;;;;;5033918;28;19928;-86
2022/12/25 15:06:15;;;;;;;;;;;;;;;;;;5033907;28;19933;-86
2022/12/25 15:08:42;;;;;;;;;;;;;;;;;;5031413;28;19928;-83
2022/12/25 15:11:10;;;;;;;;;;;;;;;;;;5032503;28;19921;-86
2022/12/25 15:13:37;;;;;;;;;;;;;;;;;;5063544;28;19929;-84
2022/12/25 15:16:10;;;;;;;;;;;;;;;;;;5064731;28;19929;-84
2022/12/25 15:18:43;;;;;;;;;;;;;;;;;;5029444;28;19928;-83
2022/12/25 15:21:10;;;;;;;;;;;;;;;;;;5034152;28;19929;-83
2022/12/25 15:23:43;;;;;;;;;;;;;;;;;;5028269;28;20803;-87
2022/12/25 15:26:10;;;;;;;;;;;;;;;;;;5033327;28;19924;-84
2022/12/25 15:28:43;;;;;;;;;;;;;;;;;;5062009;28;19936;-87
2022/12/25 15:31:10;;;;;;;;;;;;;;;;;;5065632;28;19920;-81
2022/12/25 15:33:38;;;;;;;;;;;;;;;;;;5031068;28;19929;-86
2022/12/25 15:36:10;;;;;;;;;;;;;;;;;;5030147;28;19983;-86
2022/12/25 15:38:38;;;;;;;;;;;;;;;;;;5028363;28;19929;-89
2022/12/25 15:41:05;;;;;;;;;;;;;;;;;;5056949;28;19929;-88
2022/12/25 15:43:33;;;;;;;;;;;;;;;;;;5034269;28;19920;-86
2022/12/25 15:46:01;;;;;;;;;;;;;;;;;;5066545;28;19939;-84
2022/12/25 15:48:28;;;;;;;;;;;;;;;;;;5031673;28;20798;-85
2022/12/25 15:50:56;;;;;;;;;;;;;;;;;;5035008;28;19929;-88
2022/12/25 15:53:25;;;;;;;;;;;;;;;;;;5036208;28;19928;-86
2022/12/25 15:55:58;;;;;;;;;;;;;;;;;;5037301;28;19925;-86
2022/12/25 15:58:30;;;;;;;;;;;;;;;;;;5062789;28;19929;-87
2022/12/25 16:00:58;;;;;;;;;;;;;;;;;;5035502;28;19928;-87
2022/12/25 16:03:26;;;;;;;;;;;;;;;;;;5042123;28;19924;-89
2022/12/25 16:05:53;;;;;;;;;;;;;;;;;;5040071;28;19921;-88
2022/12/25 16:08:21;;;;;;;;;;;;;;;;;;5037285;28;19936;-88
2022/12/25 16:10:48;;;;;;;;;;;;;;;;;;5064668;28;20878;-87
2022/12/25 16:13:16;;;;;;;;;;;;;;;;;;5031338;28;19940;-89
2022/12/25 16:15:44;;;;;;;;;;;;;;;;;;5032654;28;19929;-86
2022/12/25 16:18:11;;;;;;;;;;;;;;;;;;5035068;28;19928;-88
2022/12/25 16:20:39;;;;;;;;;;;;;;;;;;5068087;28;20289;-85
2022/12/25 16:23:06;;;;;;;;;;;;;;;;;;5032758;28;19935;-86
2022/12/25 16:25:34;;;;;;;;;;;;;;;;;;5033701;28;19929;-86
2022/12/25 16:28:02;;;;;;;;;;;;;;;;;;5029638;28;19951;-87
2022/12/25 16:30:29;;;;;;;;;;;;;;;;;;5033531;28;20368;-84
2022/12/25 16:33:02;;;;;;;;;;;;;;;;;;5030974;28;19936;-86
2022/12/25 16:35:29;;;;;;;;;;;;;;;;;;5065549;28;20377;-84
2022/12/25 16:38:02;;;;;;;;;;;;;;;;;;5034738;28;20686;-86
2022/12/25 16:40:34;;;;;;;;;;;;;;;;;;5032654;28;19936;-83
2022/12/25 16:43:02;;;;;;;;;;;;;;;;;;5066527;28;19921;-85
2022/12/25 16:45:29;;;;;;;;;;;;;;;;;;5065647;28;19920;-84
2022/12/25 16:47:57;;;;;;;;;;;;;;;;;;5031891;28;20516;-87
2022/12/25 16:50:29;;;;;;;;;;;;;;;;;;5034846;28;19963;-84
2022/12/25 16:53:02;;;;;;;;;;;;;;;;;;5061824;28;19935;-85
2022/12/25 16:55:29;;;;;;;;;;;;;;;;;;5027854;28;19920;-85
2022/12/25 16:57:57;;;;;;;;;;;;;;;;;;5027674;28;20298;-86
2022/12/25 17:00:30;;;;;;;;;;;;;;;;;;5068060;28;19927;-86
2022/12/25 17:03:02;;;;;;;;;;;;;;;;;;5031104;28;20700;-85
2022/12/25 17:05:30;;;;;;;;;;;;;;;;;;5031176;28;19928;-84
2022/12/25 17:07:58;;;;;;;;;;;;;;;;;;5029085;28;19928;-85
2022/12/25 17:10:31;;;;;;;;;;;;;;;;;;5032849;28;20745;-83
2022/12/25 17:12:58;;;;;;;;;;;;;;;;;;5042044;28;19928;-85
2022/12/25 17:15:26;;;;;;;;;;;;;;;;;;5029160;28;19924;-84
2022/12/25 17:17:53;;;;;;;;;;;;;;;;;;5032963;28;21308;-86
2022/12/25 17:20:21;;;;;;;;;;;;;;;;;;5061634;28;19935;-84
2022/12/25 17:22:48;;;;;;;;;;;;;;;;;;5061888;28;19929;-85
2022/12/25 17:25:16;;;;;;;;;;;;;;;;;;5029971;28;19929;-83
2022/12/25 17:27:48;;;;;;;;;;;;;;;;;;5064814;28;19936;-86
2022/12/25 17:30:16;;;;;;;;;;;;;;;;;;5065462;28;19928;-85
2022/12/25 17:32:49;;;;;;;;;;;;;;;;;;5036000;28;19929;-84
2022/12/25 17:35:19;;;;;;;;;;;;;;;;;;5033583;28;19950;-84
2022/12/25 17:37:46;;;;;;;;;;;;;;;;;;5028488;28;19928;-85
2022/12/25 17:40:19;;;;;;;;;;;;;;;;;;5033464;28;19931;-86
2022/12/25 17:42:47;;;;;;;;;;;;;;;;;;5029447;28;20494;-82
2022/12/25 17:45:14;;;;;;;;;;;;;;;;;;5028200;28;19939;-83
2022/12/25 17:47:42;;;;;;;;;;;;;;;;;;5028969;28;19928;-85
2022/12/25 17:50:14;;;;;;;;;;;;;;;;;;5028638;28;20558;-87
2022/12/25 17:52:42;;;;;;;;;;;;;;;;;;5027886;28;19929;-85
2022/12/25 17:55:10;;;;;;;;;;;;;;;;;;5029236;28;19929;-85
2022/12/25 17:57:37;;;;;;;;;;;;;;;;;;5029808;28;20015;-86
2022/12/25 18:00:05;;;;;;;;;;;;;;;;;;5031774;28;19927;-87
2022/12/25 18:02:33;;;;;;;;;;;;;;;;;;5029396;28;19924;-84
2022/12/25 18:05:00;;;;;;;;;;;;;;;;;;5029725;28;19936;-85
2022/12/25 18:07:28;;;;;;;;;;;;;;;;;;5061341;28;19936;-86
2022/12/25 18:09:55;;;;;;;;;;;;;;;;;;5028083;28;19929;-85
2022/12/25 18:12:28;;;;;;;;;;;;;;;;;;5030974;28;19928;-86
2022/12/25 18:14:55;;;;;;;;;;;;;;;;;;5032039;28;20401;-85
2022/12/25 18:17:28;;;;;;;;;;;;;;;;;;5058802;28;21324;-86
2022/12/25 18:20:00;;;;;;;;;;;;;;;;;;5036057;28;19932;-87
2022/12/25 18:22:29;;;;;;;;;;;;;;;;;;5025801;28;19941;-86
2022/12/25 18:24:57;;;;;;;;;;;;;;;;;;5034025;28;20495;-86
2022/12/25 18:27:24;;;;;;;;;;;;;;;;;;5061383;28;19928;-87
2022/12/25 18:29:52;;;;;;;;;;;;;;;;;;5059970;28;19936;-87
2022/12/25 18:32:19;;;;;;;;;;;;;;;;;;5059299;28;19928;-85
2022/12/25 18:34:52;;;;;;;;;;;;;;;;;;5032378;28;19928;-86